Kaniere, New Zealand
Current Conditions -  °F | °C
As of 1:00 AM on Friday 19 Dec 2014 (Local Time) from NZCH Reporting Station
Clear Clear  
Wind Chill: 52°   Ceiling: Unl
Heat Index: 52°   Visibility: 6mi
Dew Point: 50°   Wind: 1mph
Humidity: 94%   Direction: 270°W
Pressure: 29.88"   Gusts: NA
Location:  42.75°S, 171.01°E
Report Text: NZCH 181300Z AUTO 27001KT 9999 NCD 11/10 Q1012 TEMPO 1000 BRBKN002
Loading
Personal Weather Stations






























Interactive Weather Map New forecast layout! Learn more

10-Day Weather Forecast

Advertisements
Track Severe Weather on mobile